Portada
METAR-TAF:

METAR-TAF

Aeroports :

Aeroport Internacional de Xangai-Pudong

Xangai-Pudong, Xina

latitud: 31-07N, longitud: 121-46E, altitud: 4 m

Observació

L'informe es va fer fa 21 minuts, a les 22:30 UTC
Vent 4 kt del Nord-Oest
Temperatura 0°C
Humitat 64%
Pressió 1033 hPa
Visibilitat 10 km o més
sense núvols per sota de 1500 mi sense presència de cumulonimbus.

METAR: ZSPD 172230Z 32002MPS CAVOK 00/M06 Q1033 NOSIG

Hora: 06:51 (22:51 UTC)

Pronòstic

L'informe es va fer fa 7 hores i 33 minuts, a les 15:18 UTC
Pronòstic vàlid del 17 a les 18 UTC al 18 a les 18 UTC
Vent 8 kt del Nord-Oest
Visibilitat: 5000 m
Núvols disperses a una alçada de 2000 ft
boirina

TAF: ZSPD 171518Z 1718/1818 31004MPS 5000 BR SCT020 TX10/1806Z TNM00/1721Z

Observacions i pronòstics meteorològics de més de 4000 aeroports (METAR i TAF).

Les estacions disponibles són els punts grocs i vermells al mapa.

Posi el ratolí al punt desitjat per veure el nom de l'estació.

Feu clic per veure les observacions i els pronòstics meteorològics.

Per canviar el mapa: feu clic els botons verds amb una creu de color negre per apropar; al botó verd amb un guió per allunyar la imatge; o en les fletxes verdes per a mapes adjacents.


METAR-TAF: